sensor_id;sensor_type;location;lat;lon;timestamp;P1;durP1;ratioP1;P2;durP2;ratioP2
72924;SDS011;61070;50.794;7.054;2023-05-19T00:00:13;9.95;;;3.20;;
72924;SDS011;61070;50.794;7.054;2023-05-19T00:02:39;17.38;;;4.22;;
72924;SDS011;61070;50.794;7.054;2023-05-19T00:05:08;10.15;;;3.40;;
72924;SDS011;61070;50.794;7.054;2023-05-19T00:07:34;10.35;;;3.60;;
72924;SDS011;61070;50.794;7.054;2023-05-19T00:10:02;12.95;;;3.78;;
72924;SDS011;61070;50.794;7.054;2023-05-19T00:12:28;12.73;;;4.30;;
72924;SDS011;61070;50.794;7.054;2023-05-19T00:14:54;10.75;;;4.10;;
72924;SDS011;61070;50.794;7.054;2023-05-19T00:17:19;10.40;;;3.35;;
72924;SDS011;61070;50.794;7.054;2023-05-19T00:19:45;7.43;;;3.72;;
72924;SDS011;61070;50.794;7.054;2023-05-19T00:22:10;13.27;;;4.60;;
72924;SDS011;61070;50.794;7.054;2023-05-19T00:24:36;11.80;;;3.92;;
72924;SDS011;61070;50.794;7.054;2023-05-19T00:27:01;8.18;;;3.80;;
72924;SDS011;61070;50.794;7.054;2023-05-19T00:29:27;12.60;;;4.70;;
72924;SDS011;61070;50.794;7.054;2023-05-19T00:31:53;8.35;;;3.58;;
72924;SDS011;61070;50.794;7.054;2023-05-19T00:34:18;7.88;;;3.67;;
72924;SDS011;61070;50.794;7.054;2023-05-19T00:36:43;12.10;;;4.28;;
72924;SDS011;61070;50.794;7.054;2023-05-19T00:39:09;9.63;;;4.00;;
72924;SDS011;61070;50.794;7.054;2023-05-19T00:41:34;11.02;;;3.78;;
72924;SDS011;61070;50.794;7.054;2023-05-19T00:44:00;11.15;;;4.05;;
72924;SDS011;61070;50.794;7.054;2023-05-19T00:46:25;8.73;;;3.65;;
72924;SDS011;61070;50.794;7.054;2023-05-19T00:48:50;9.40;;;3.97;;
72924;SDS011;61070;50.794;7.054;2023-05-19T00:51:16;9.27;;;4.00;;
72924;SDS011;61070;50.794;7.054;2023-05-19T00:53:42;15.43;;;4.15;;
72924;SDS011;61070;50.794;7.054;2023-05-19T00:56:12;10.18;;;5.13;;
72924;SDS011;61070;50.794;7.054;2023-05-19T00:58:38;15.27;;;3.80;;
72924;SDS011;61070;50.794;7.054;2023-05-19T01:01:04;8.55;;;3.88;;
72924;SDS011;61070;50.794;7.054;2023-05-19T01:03:32;5.43;;;3.70;;
72924;SDS011;61070;50.794;7.054;2023-05-19T01:05:59;11.23;;;3.75;;
72924;SDS011;61070;50.794;7.054;2023-05-19T01:08:31;9.43;;;3.70;;
72924;SDS011;61070;50.794;7.054;2023-05-19T01:10:58;6.63;;;3.30;;
72924;SDS011;61070;50.794;7.054;2023-05-19T01:13:24;8.20;;;3.42;;
72924;SDS011;61070;50.794;7.054;2023-05-19T01:16:05;16.27;;;4.43;;
72924;SDS011;61070;50.794;7.054;2023-05-19T01:18:43;16.50;;;4.38;;
72924;SDS011;61070;50.794;7.054;2023-05-19T01:24:20;7.90;;;3.92;;
72924;SDS011;61070;50.794;7.054;2023-05-19T01:32:30;11.13;;;4.13;;
72924;SDS011;61070;50.794;7.054;2023-05-19T01:34:58;7.32;;;4.53;;
72924;SDS011;61070;50.794;7.054;2023-05-19T01:37:25;10.95;;;3.78;;
72924;SDS011;61070;50.794;7.054;2023-05-19T01:39:51;8.45;;;4.63;;
72924;SDS011;61070;50.794;7.054;2023-05-19T01:42:17;11.07;;;4.63;;
72924;SDS011;61070;50.794;7.054;2023-05-19T01:44:44;10.35;;;4.35;;
72924;SDS011;61070;50.794;7.054;2023-05-19T01:47:10;10.60;;;4.57;;
72924;SDS011;61070;50.794;7.054;2023-05-19T01:49:36;12.73;;;4.65;;
72924;SDS011;61070;50.794;7.054;2023-05-19T01:52:02;11.10;;;4.68;;
72924;SDS011;61070;50.794;7.054;2023-05-19T01:54:27;16.65;;;4.57;;
72924;SDS011;61070;50.794;7.054;2023-05-19T02:00:06;10.90;;;4.20;;
72924;SDS011;61070;50.794;7.054;2023-05-19T02:05:26;9.93;;;3.83;;
72924;SDS011;61070;50.794;7.054;2023-05-19T02:08:06;12.43;;;4.15;;
72924;SDS011;61070;50.794;7.054;2023-05-19T02:10:44;11.52;;;3.88;;
72924;SDS011;61070;50.794;7.054;2023-05-19T02:13:22;11.50;;;4.00;;
72924;SDS011;61070;50.794;7.054;2023-05-19T02:15:53;9.05;;;4.57;;
72924;SDS011;61070;50.794;7.054;2023-05-19T02:18:23;5.47;;;3.60;;
72924;SDS011;61070;50.794;7.054;2023-05-19T02:20:49;10.30;;;3.70;;
72924;SDS011;61070;50.794;7.054;2023-05-19T02:23:14;9.82;;;4.07;;
72924;SDS011;61070;50.794;7.054;2023-05-19T02:25:39;10.07;;;4.38;;
72924;SDS011;61070;50.794;7.054;2023-05-19T02:28:05;10.98;;;4.10;;
72924;SDS011;61070;50.794;7.054;2023-05-19T02:30:30;11.40;;;4.55;;
72924;SDS011;61070;50.794;7.054;2023-05-19T02:32:56;8.77;;;3.70;;
72924;SDS011;61070;50.794;7.054;2023-05-19T02:35:21;6.43;;;3.85;;
72924;SDS011;61070;50.794;7.054;2023-05-19T02:37:46;14.80;;;4.80;;
72924;SDS011;61070;50.794;7.054;2023-05-19T02:40:11;11.82;;;4.70;;
72924;SDS011;61070;50.794;7.054;2023-05-19T02:42:37;11.05;;;4.70;;
72924;SDS011;61070;50.794;7.054;2023-05-19T02:45:02;8.25;;;4.25;;
72924;SDS011;61070;50.794;7.054;2023-05-19T02:47:28;9.13;;;5.20;;
72924;SDS011;61070;50.794;7.054;2023-05-19T02:49:53;9.60;;;4.72;;
72924;SDS011;61070;50.794;7.054;2023-05-19T02:52:19;11.05;;;4.88;;
72924;SDS011;61070;50.794;7.054;2023-05-19T02:54:44;7.97;;;4.75;;
72924;SDS011;61070;50.794;7.054;2023-05-19T02:57:09;10.25;;;5.22;;
72924;SDS011;61070;50.794;7.054;2023-05-19T02:59:35;6.68;;;4.50;;
72924;SDS011;61070;50.794;7.054;2023-05-19T03:02:00;10.90;;;4.30;;
72924;SDS011;61070;50.794;7.054;2023-05-19T03:04:26;10.55;;;4.38;;
72924;SDS011;61070;50.794;7.054;2023-05-19T03:06:53;9.90;;;4.50;;
72924;SDS011;61070;50.794;7.054;2023-05-19T03:09:18;10.38;;;4.50;;
72924;SDS011;61070;50.794;7.054;2023-05-19T03:11:44;8.73;;;4.00;;
72924;SDS011;61070;50.794;7.054;2023-05-19T03:14:09;11.68;;;4.95;;
72924;SDS011;61070;50.794;7.054;2023-05-19T03:16:36;12.35;;;4.82;;
72924;SDS011;61070;50.794;7.054;2023-05-19T03:19:01;11.52;;;5.32;;
72924;SDS011;61070;50.794;7.054;2023-05-19T03:21:26;10.82;;;5.15;;
72924;SDS011;61070;50.794;7.054;2023-05-19T03:23:52;8.50;;;4.88;;
72924;SDS011;61070;50.794;7.054;2023-05-19T03:26:18;10.07;;;4.43;;
72924;SDS011;61070;50.794;7.054;2023-05-19T03:28:44;9.20;;;5.00;;
72924;SDS011;61070;50.794;7.054;2023-05-19T03:31:09;7.57;;;4.28;;
72924;SDS011;61070;50.794;7.054;2023-05-19T03:33:34;13.40;;;5.10;;
72924;SDS011;61070;50.794;7.054;2023-05-19T03:36:00;9.43;;;4.80;;
72924;SDS011;61070;50.794;7.054;2023-05-19T03:38:25;14.50;;;5.40;;
72924;SDS011;61070;50.794;7.054;2023-05-19T03:40:51;13.30;;;5.53;;
72924;SDS011;61070;50.794;7.054;2023-05-19T03:43:17;12.93;;;5.28;;
72924;SDS011;61070;50.794;7.054;2023-05-19T03:45:42;8.98;;;4.65;;
72924;SDS011;61070;50.794;7.054;2023-05-19T03:48:08;12.90;;;5.45;;
72924;SDS011;61070;50.794;7.054;2023-05-19T03:50:33;14.13;;;5.93;;
72924;SDS011;61070;50.794;7.054;2023-05-19T03:52:59;9.40;;;4.97;;
72924;SDS011;61070;50.794;7.054;2023-05-19T03:55:24;10.77;;;5.50;;
72924;SDS011;61070;50.794;7.054;2023-05-19T03:57:50;11.40;;;5.45;;
72924;SDS011;61070;50.794;7.054;2023-05-19T04:00:16;16.73;;;5.28;;
72924;SDS011;61070;50.794;7.054;2023-05-19T04:02:42;11.00;;;5.18;;
72924;SDS011;61070;50.794;7.054;2023-05-19T04:05:08;9.90;;;5.07;;
72924;SDS011;61070;50.794;7.054;2023-05-19T04:07:34;11.25;;;4.93;;
72924;SDS011;61070;50.794;7.054;2023-05-19T04:10:01;15.35;;;5.13;;
72924;SDS011;61070;50.794;7.054;2023-05-19T04:12:28;9.05;;;5.20;;
72924;SDS011;61070;50.794;7.054;2023-05-19T04:14:53;10.43;;;5.13;;
72924;SDS011;61070;50.794;7.054;2023-05-19T04:17:18;9.50;;;5.22;;
72924;SDS011;61070;50.794;7.054;2023-05-19T04:19:44;9.07;;;4.53;;
72924;SDS011;61070;50.794;7.054;2023-05-19T04:22:09;12.07;;;4.65;;
72924;SDS011;61070;50.794;7.054;2023-05-19T04:24:34;13.70;;;5.05;;
72924;SDS011;61070;50.794;7.054;2023-05-19T04:27:00;7.85;;;4.50;;
72924;SDS011;61070;50.794;7.054;2023-05-19T04:29:27;7.22;;;4.47;;
72924;SDS011;61070;50.794;7.054;2023-05-19T04:31:53;15.75;;;4.93;;
72924;SDS011;61070;50.794;7.054;2023-05-19T04:34:19;13.30;;;5.63;;
72924;SDS011;61070;50.794;7.054;2023-05-19T04:36:44;15.52;;;4.90;;
72924;SDS011;61070;50.794;7.054;2023-05-19T04:39:09;11.93;;;5.30;;
72924;SDS011;61070;50.794;7.054;2023-05-19T04:41:36;13.68;;;5.30;;
72924;SDS011;61070;50.794;7.054;2023-05-19T04:44:04;9.95;;;4.72;;
72924;SDS011;61070;50.794;7.054;2023-05-19T04:46:33;10.75;;;5.03;;
72924;SDS011;61070;50.794;7.054;2023-05-19T04:48:58;10.70;;;4.60;;
72924;SDS011;61070;50.794;7.054;2023-05-19T04:51:25;11.38;;;4.47;;
72924;SDS011;61070;50.794;7.054;2023-05-19T04:53:53;10.27;;;4.82;;
72924;SDS011;61070;50.794;7.054;2023-05-19T04:56:19;9.38;;;4.72;;
72924;SDS011;61070;50.794;7.054;2023-05-19T04:58:44;13.52;;;4.70;;
72924;SDS011;61070;50.794;7.054;2023-05-19T05:01:10;8.60;;;4.28;;
72924;SDS011;61070;50.794;7.054;2023-05-19T05:03:37;10.43;;;4.53;;
72924;SDS011;61070;50.794;7.054;2023-05-19T05:06:03;9.95;;;4.55;;
72924;SDS011;61070;50.794;7.054;2023-05-19T05:08:28;12.30;;;4.25;;
72924;SDS011;61070;50.794;7.054;2023-05-19T05:10:54;9.98;;;4.53;;
72924;SDS011;61070;50.794;7.054;2023-05-19T05:13:20;7.93;;;4.68;;
72924;SDS011;61070;50.794;7.054;2023-05-19T05:15:47;9.32;;;4.03;;
72924;SDS011;61070;50.794;7.054;2023-05-19T05:18:13;8.73;;;3.70;;
72924;SDS011;61070;50.794;7.054;2023-05-19T05:20:39;10.07;;;4.45;;
72924;SDS011;61070;50.794;7.054;2023-05-19T05:23:06;11.13;;;4.40;;
72924;SDS011;61070;50.794;7.054;2023-05-19T05:25:33;13.93;;;4.35;;
72924;SDS011;61070;50.794;7.054;2023-05-19T05:27:59;10.13;;;4.30;;
72924;SDS011;61070;50.794;7.054;2023-05-19T05:30:28;13.23;;;3.97;;
72924;SDS011;61070;50.794;7.054;2023-05-19T05:32:54;8.35;;;4.22;;
72924;SDS011;61070;50.794;7.054;2023-05-19T05:35:19;8.43;;;3.92;;
72924;SDS011;61070;50.794;7.054;2023-05-19T05:37:47;8.82;;;4.05;;
72924;SDS011;61070;50.794;7.054;2023-05-19T05:40:12;10.02;;;3.50;;
72924;SDS011;61070;50.794;7.054;2023-05-19T05:42:38;10.43;;;3.90;;
72924;SDS011;61070;50.794;7.054;2023-05-19T05:45:06;9.50;;;3.30;;
72924;SDS011;61070;50.794;7.054;2023-05-19T05:47:32;10.25;;;3.97;;
72924;SDS011;61070;50.794;7.054;2023-05-19T05:49:57;8.50;;;3.30;;
72924;SDS011;61070;50.794;7.054;2023-05-19T05:52:24;14.98;;;4.30;;
72924;SDS011;61070;50.794;7.054;2023-05-19T05:54:54;9.70;;;4.03;;
72924;SDS011;61070;50.794;7.054;2023-05-19T05:57:19;11.85;;;3.78;;
72924;SDS011;61070;50.794;7.054;2023-05-19T05:59:45;12.02;;;3.70;;
72924;SDS011;61070;50.794;7.054;2023-05-19T06:02:11;15.63;;;3.28;;
72924;SDS011;61070;50.794;7.054;2023-05-19T06:04:36;11.00;;;2.70;;
72924;SDS011;61070;50.794;7.054;2023-05-19T06:07:01;12.10;;;2.92;;
72924;SDS011;61070;50.794;7.054;2023-05-19T06:09:27;12.60;;;3.10;;
72924;SDS011;61070;50.794;7.054;2023-05-19T06:11:54;6.63;;;2.88;;
72924;SDS011;61070;50.794;7.054;2023-05-19T06:14:19;10.02;;;2.83;;
72924;SDS011;61070;50.794;7.054;2023-05-19T06:16:44;10.40;;;3.17;;
72924;SDS011;61070;50.794;7.054;2023-05-19T06:19:11;9.38;;;2.90;;
72924;SDS011;61070;50.794;7.054;2023-05-19T06:21:37;6.95;;;3.42;;
72924;SDS011;61070;50.794;7.054;2023-05-19T06:24:02;9.43;;;3.45;;
72924;SDS011;61070;50.794;7.054;2023-05-19T06:26:27;14.35;;;3.35;;
72924;SDS011;61070;50.794;7.054;2023-05-19T06:28:53;6.45;;;3.13;;
72924;SDS011;61070;50.794;7.054;2023-05-19T06:31:18;8.80;;;2.88;;
72924;SDS011;61070;50.794;7.054;2023-05-19T06:33:43;14.02;;;3.00;;
72924;SDS011;61070;50.794;7.054;2023-05-19T06:36:09;11.52;;;3.15;;
72924;SDS011;61070;50.794;7.054;2023-05-19T06:38:34;8.77;;;2.55;;
72924;SDS011;61070;50.794;7.054;2023-05-19T06:41:00;7.97;;;2.75;;
72924;SDS011;61070;50.794;7.054;2023-05-19T06:43:25;9.23;;;2.72;;
72924;SDS011;61070;50.794;7.054;2023-05-19T06:45:50;12.30;;;3.17;;
72924;SDS011;61070;50.794;7.054;2023-05-19T06:48:16;8.45;;;2.97;;
72924;SDS011;61070;50.794;7.054;2023-05-19T06:50:41;11.15;;;3.30;;
72924;SDS011;61070;50.794;7.054;2023-05-19T06:53:06;11.25;;;2.88;;
72924;SDS011;61070;50.794;7.054;2023-05-19T06:55:32;8.15;;;2.67;;
72924;SDS011;61070;50.794;7.054;2023-05-19T06:57:57;11.05;;;2.47;;
72924;SDS011;61070;50.794;7.054;2023-05-19T07:00:22;6.30;;;2.53;;
72924;SDS011;61070;50.794;7.054;2023-05-19T07:02:48;11.07;;;2.53;;
72924;SDS011;61070;50.794;7.054;2023-05-19T07:05:13;8.18;;;2.40;;
72924;SDS011;61070;50.794;7.054;2023-05-19T07:07:38;8.70;;;2.47;;
72924;SDS011;61070;50.794;7.054;2023-05-19T07:10:04;11.45;;;1.95;;
72924;SDS011;61070;50.794;7.054;2023-05-19T07:12:29;15.95;;;3.75;;
72924;SDS011;61070;50.794;7.054;2023-05-19T07:14:55;4.85;;;2.40;;
72924;SDS011;61070;50.794;7.054;2023-05-19T07:17:20;13.25;;;2.47;;
72924;SDS011;61070;50.794;7.054;2023-05-19T07:19:45;14.10;;;2.15;;
72924;SDS011;61070;50.794;7.054;2023-05-19T07:22:10;9.13;;;2.65;;
72924;SDS011;61070;50.794;7.054;2023-05-19T07:24:36;5.75;;;2.17;;
72924;SDS011;61070;50.794;7.054;2023-05-19T07:27:01;8.90;;;2.60;;
72924;SDS011;61070;50.794;7.054;2023-05-19T07:29:26;6.03;;;2.28;;
72924;SDS011;61070;50.794;7.054;2023-05-19T07:31:51;14.13;;;2.53;;
72924;SDS011;61070;50.794;7.054;2023-05-19T07:34:21;9.53;;;2.50;;
72924;SDS011;61070;50.794;7.054;2023-05-19T07:36:47;6.45;;;1.98;;
72924;SDS011;61070;50.794;7.054;2023-05-19T07:39:12;19.52;;;3.60;;
72924;SDS011;61070;50.794;7.054;2023-05-19T07:41:37;11.40;;;2.42;;
72924;SDS011;61070;50.794;7.054;2023-05-19T07:44:03;5.63;;;2.35;;
72924;SDS011;61070;50.794;7.054;2023-05-19T07:46:31;7.95;;;2.30;;
72924;SDS011;61070;50.794;7.054;2023-05-19T07:48:59;4.40;;;1.92;;
72924;SDS011;61070;50.794;7.054;2023-05-19T07:51:24;6.57;;;1.88;;
72924;SDS011;61070;50.794;7.054;2023-05-19T07:53:50;12.68;;;3.35;;
72924;SDS011;61070;50.794;7.054;2023-05-19T07:56:15;6.25;;;2.42;;
72924;SDS011;61070;50.794;7.054;2023-05-19T07:58:40;8.52;;;2.13;;
72924;SDS011;61070;50.794;7.054;2023-05-19T08:01:06;9.73;;;2.40;;
72924;SDS011;61070;50.794;7.054;2023-05-19T08:03:31;12.10;;;2.30;;
72924;SDS011;61070;50.794;7.054;2023-05-19T08:05:57;11.18;;;2.30;;
72924;SDS011;61070;50.794;7.054;2023-05-19T08:08:22;8.00;;;2.38;;
72924;SDS011;61070;50.794;7.054;2023-05-19T08:10:48;10.93;;;2.15;;
72924;SDS011;61070;50.794;7.054;2023-05-19T08:13:13;13.32;;;2.67;;
72924;SDS011;61070;50.794;7.054;2023-05-19T08:15:39;10.35;;;2.28;;
72924;SDS011;61070;50.794;7.054;2023-05-19T08:18:05;4.25;;;1.80;;
72924;SDS011;61070;50.794;7.054;2023-05-19T08:20:30;7.72;;;2.13;;
72924;SDS011;61070;50.794;7.054;2023-05-19T08:22:56;5.28;;;1.95;;
72924;SDS011;61070;50.794;7.054;2023-05-19T08:25:21;10.30;;;2.17;;
72924;SDS011;61070;50.794;7.054;2023-05-19T08:27:46;10.88;;;2.38;;
72924;SDS011;61070;50.794;7.054;2023-05-19T08:30:12;16.50;;;2.25;;
72924;SDS011;61070;50.794;7.054;2023-05-19T08:32:37;7.88;;;2.38;;
72924;SDS011;61070;50.794;7.054;2023-05-19T08:35:03;11.30;;;2.28;;
72924;SDS011;61070;50.794;7.054;2023-05-19T08:37:28;8.57;;;2.13;;
72924;SDS011;61070;50.794;7.054;2023-05-19T08:39:54;6.80;;;2.35;;
72924;SDS011;61070;50.794;7.054;2023-05-19T08:42:19;6.57;;;2.20;;
72924;SDS011;61070;50.794;7.054;2023-05-19T08:44:44;10.15;;;1.98;;
72924;SDS011;61070;50.794;7.054;2023-05-19T08:47:10;11.15;;;2.85;;
72924;SDS011;61070;50.794;7.054;2023-05-19T08:49:44;12.75;;;2.65;;
72924;SDS011;61070;50.794;7.054;2023-05-19T08:52:14;16.85;;;2.58;;
72924;SDS011;61070;50.794;7.054;2023-05-19T08:54:54;8.93;;;2.20;;
72924;SDS011;61070;50.794;7.054;2023-05-19T08:57:24;10.63;;;2.47;;
72924;SDS011;61070;50.794;7.054;2023-05-19T08:59:51;6.63;;;1.73;;
72924;SDS011;61070;50.794;7.054;2023-05-19T09:02:18;5.28;;;2.00;;
72924;SDS011;61070;50.794;7.054;2023-05-19T09:04:44;4.68;;;2.42;;
72924;SDS011;61070;50.794;7.054;2023-05-19T09:07:12;11.90;;;2.47;;
72924;SDS011;61070;50.794;7.054;2023-05-19T09:09:38;12.30;;;3.05;;
72924;SDS011;61070;50.794;7.054;2023-05-19T09:12:07;8.77;;;2.10;;
72924;SDS011;61070;50.794;7.054;2023-05-19T09:14:32;9.02;;;2.58;;
72924;SDS011;61070;50.794;7.054;2023-05-19T09:16:58;5.82;;;2.28;;
72924;SDS011;61070;50.794;7.054;2023-05-19T09:19:27;7.43;;;1.98;;
72924;SDS011;61070;50.794;7.054;2023-05-19T09:21:59;7.55;;;2.40;;
72924;SDS011;61070;50.794;7.054;2023-05-19T09:24:25;11.10;;;2.42;;
72924;SDS011;61070;50.794;7.054;2023-05-19T09:26:52;7.82;;;2.50;;
72924;SDS011;61070;50.794;7.054;2023-05-19T09:29:19;8.60;;;2.00;;
72924;SDS011;61070;50.794;7.054;2023-05-19T09:31:51;12.82;;;2.25;;
72924;SDS011;61070;50.794;7.054;2023-05-19T09:34:18;7.60;;;2.20;;
72924;SDS011;61070;50.794;7.054;2023-05-19T09:36:49;4.75;;;2.20;;
72924;SDS011;61070;50.794;7.054;2023-05-19T09:39:15;7.38;;;1.95;;
72924;SDS011;61070;50.794;7.054;2023-05-19T09:41:41;7.30;;;2.30;;
72924;SDS011;61070;50.794;7.054;2023-05-19T09:44:11;10.90;;;2.35;;
72924;SDS011;61070;50.794;7.054;2023-05-19T09:46:37;5.75;;;2.25;;
72924;SDS011;61070;50.794;7.054;2023-05-19T09:49:08;9.48;;;2.60;;
72924;SDS011;61070;50.794;7.054;2023-05-19T09:51:39;12.77;;;2.20;;
72924;SDS011;61070;50.794;7.054;2023-05-19T09:54:06;7.18;;;2.20;;
72924;SDS011;61070;50.794;7.054;2023-05-19T09:56:33;7.43;;;2.22;;
72924;SDS011;61070;50.794;7.054;2023-05-19T09:59:00;9.25;;;2.45;;
72924;SDS011;61070;50.794;7.054;2023-05-19T10:01:27;11.02;;;2.40;;
72924;SDS011;61070;50.794;7.054;2023-05-19T10:03:53;11.70;;;2.33;;
72924;SDS011;61070;50.794;7.054;2023-05-19T10:06:20;5.88;;;1.95;;
72924;SDS011;61070;50.794;7.054;2023-05-19T10:08:46;13.50;;;2.58;;
72924;SDS011;61070;50.794;7.054;2023-05-19T10:11:14;7.75;;;2.30;;
72924;SDS011;61070;50.794;7.054;2023-05-19T10:13:41;8.50;;;2.45;;
72924;SDS011;61070;50.794;7.054;2023-05-19T10:16:07;8.98;;;2.10;;
72924;SDS011;61070;50.794;7.054;2023-05-19T10:18:33;7.43;;;2.25;;
72924;SDS011;61070;50.794;7.054;2023-05-19T10:20:59;8.68;;;2.65;;
72924;SDS011;61070;50.794;7.054;2023-05-19T10:23:26;5.70;;;1.83;;
72924;SDS011;61070;50.794;7.054;2023-05-19T10:25:52;8.48;;;1.95;;
72924;SDS011;61070;50.794;7.054;2023-05-19T10:28:20;8.00;;;2.20;;
72924;SDS011;61070;50.794;7.054;2023-05-19T10:30:49;5.47;;;1.80;;
72924;SDS011;61070;50.794;7.054;2023-05-19T10:33:18;10.57;;;2.03;;
72924;SDS011;61070;50.794;7.054;2023-05-19T10:36:01;11.98;;;2.35;;
72924;SDS011;61070;50.794;7.054;2023-05-19T10:39:20;8.65;;;2.45;;
72924;SDS011;61070;50.794;7.054;2023-05-19T10:42:15;4.60;;;2.00;;
72924;SDS011;61070;50.794;7.054;2023-05-19T10:45:22;4.43;;;1.80;;
72924;SDS011;61070;50.794;7.054;2023-05-19T10:47:23;7.13;;;1.90;;
72924;SDS011;61070;50.794;7.054;2023-05-19T10:49:50;7.63;;;1.70;;
72924;SDS011;61070;50.794;7.054;2023-05-19T10:52:18;4.70;;;1.88;;
72924;SDS011;61070;50.794;7.054;2023-05-19T10:54:45;6.63;;;1.80;;
72924;SDS011;61070;50.794;7.054;2023-05-19T10:57:14;4.55;;;1.83;;
72924;SDS011;61070;50.794;7.054;2023-05-19T11:02:08;10.93;;;2.42;;
72924;SDS011;61070;50.794;7.054;2023-05-19T11:04:47;6.88;;;1.77;;
72924;SDS011;61070;50.794;7.054;2023-05-19T11:07:20;7.40;;;1.90;;
72924;SDS011;61070;50.794;7.054;2023-05-19T11:09:50;6.63;;;1.88;;
72924;SDS011;61070;50.794;7.054;2023-05-19T11:12:19;12.32;;;2.92;;
72924;SDS011;61070;50.794;7.054;2023-05-19T11:17:12;4.77;;;2.00;;
72924;SDS011;61070;50.794;7.054;2023-05-19T11:19:39;7.80;;;2.17;;
72924;SDS011;61070;50.794;7.054;2023-05-19T11:22:16;7.18;;;2.28;;
72924;SDS011;61070;50.794;7.054;2023-05-19T11:24:42;8.65;;;2.20;;
72924;SDS011;61070;50.794;7.054;2023-05-19T11:29:50;7.35;;;2.15;;
72924;SDS011;61070;50.794;7.054;2023-05-19T11:32:16;9.52;;;2.35;;
72924;SDS011;61070;50.794;7.054;2023-05-19T11:34:43;6.88;;;1.75;;
72924;SDS011;61070;50.794;7.054;2023-05-19T11:37:09;9.45;;;2.40;;
72924;SDS011;61070;50.794;7.054;2023-05-19T11:39:35;5.72;;;1.67;;
72924;SDS011;61070;50.794;7.054;2023-05-19T11:42:00;7.25;;;1.85;;
72924;SDS011;61070;50.794;7.054;2023-05-19T11:44:26;14.60;;;1.98;;
72924;SDS011;61070;50.794;7.054;2023-05-19T11:46:51;4.55;;;1.60;;
72924;SDS011;61070;50.794;7.054;2023-05-19T11:49:17;7.22;;;2.38;;
72924;SDS011;61070;50.794;7.054;2023-05-19T11:51:42;5.57;;;1.77;;
72924;SDS011;61070;50.794;7.054;2023-05-19T11:54:11;5.43;;;2.05;;
72924;SDS011;61070;50.794;7.054;2023-05-19T11:56:40;6.25;;;2.08;;
72924;SDS011;61070;50.794;7.054;2023-05-19T11:59:07;4.67;;;1.90;;
72924;SDS011;61070;50.794;7.054;2023-05-19T12:01:33;8.25;;;1.85;;
72924;SDS011;61070;50.794;7.054;2023-05-19T12:03:59;4.05;;;1.67;;
72924;SDS011;61070;50.794;7.054;2023-05-19T12:06:25;4.55;;;1.80;;
72924;SDS011;61070;50.794;7.054;2023-05-19T12:08:51;7.57;;;1.65;;
72924;SDS011;61070;50.794;7.054;2023-05-19T12:11:18;7.95;;;2.20;;
72924;SDS011;61070;50.794;7.054;2023-05-19T12:13:43;5.72;;;2.15;;
72924;SDS011;61070;50.794;7.054;2023-05-19T12:16:09;9.75;;;2.13;;
72924;SDS011;61070;50.794;7.054;2023-05-19T12:18:35;7.00;;;1.98;;
72924;SDS011;61070;50.794;7.054;2023-05-19T12:21:01;6.35;;;1.70;;
72924;SDS011;61070;50.794;7.054;2023-05-19T12:23:26;12.68;;;2.35;;
72924;SDS011;61070;50.794;7.054;2023-05-19T12:25:54;7.07;;;1.95;;
72924;SDS011;61070;50.794;7.054;2023-05-19T12:28:21;5.18;;;1.77;;
72924;SDS011;61070;50.794;7.054;2023-05-19T12:30:47;8.32;;;1.80;;
72924;SDS011;61070;50.794;7.054;2023-05-19T12:33:15;13.05;;;2.90;;
72924;SDS011;61070;50.794;7.054;2023-05-19T12:35:41;4.47;;;1.60;;
72924;SDS011;61070;50.794;7.054;2023-05-19T12:38:07;9.20;;;1.85;;
72924;SDS011;61070;50.794;7.054;2023-05-19T12:40:33;6.80;;;1.80;;
72924;SDS011;61070;50.794;7.054;2023-05-19T12:42:58;6.90;;;1.95;;
72924;SDS011;61070;50.794;7.054;2023-05-19T12:45:24;5.43;;;1.80;;
72924;SDS011;61070;50.794;7.054;2023-05-19T12:47:51;5.53;;;1.77;;
72924;SDS011;61070;50.794;7.054;2023-05-19T12:50:17;8.52;;;1.83;;
72924;SDS011;61070;50.794;7.054;2023-05-19T12:52:44;7.07;;;1.50;;
72924;SDS011;61070;50.794;7.054;2023-05-19T12:55:11;9.35;;;2.05;;
72924;SDS011;61070;50.794;7.054;2023-05-19T12:57:39;7.40;;;1.80;;
72924;SDS011;61070;50.794;7.054;2023-05-19T13:00:14;6.70;;;1.38;;
72924;SDS011;61070;50.794;7.054;2023-05-19T13:05:30;6.43;;;2.05;;
72924;SDS011;61070;50.794;7.054;2023-05-19T13:08:00;7.95;;;2.20;;
72924;SDS011;61070;50.794;7.054;2023-05-19T13:10:26;3.58;;;1.58;;
72924;SDS011;61070;50.794;7.054;2023-05-19T13:12:53;6.55;;;1.98;;
72924;SDS011;61070;50.794;7.054;2023-05-19T13:15:20;8.18;;;2.00;;
72924;SDS011;61070;50.794;7.054;2023-05-19T13:17:48;6.63;;;1.83;;
72924;SDS011;61070;50.794;7.054;2023-05-19T13:20:13;3.80;;;1.50;;
72924;SDS011;61070;50.794;7.054;2023-05-19T13:22:38;9.05;;;1.58;;
72924;SDS011;61070;50.794;7.054;2023-05-19T13:25:04;6.03;;;1.80;;
72924;SDS011;61070;50.794;7.054;2023-05-19T13:27:30;4.45;;;2.00;;
72924;SDS011;61070;50.794;7.054;2023-05-19T13:29:55;2.80;;;1.83;;
72924;SDS011;61070;50.794;7.054;2023-05-19T13:32:20;9.55;;;1.73;;
72924;SDS011;61070;50.794;7.054;2023-05-19T13:34:46;6.20;;;1.92;;
72924;SDS011;61070;50.794;7.054;2023-05-19T13:37:11;9.00;;;1.73;;
72924;SDS011;61070;50.794;7.054;2023-05-19T13:39:36;4.68;;;1.75;;
72924;SDS011;61070;50.794;7.054;2023-05-19T13:42:02;6.65;;;1.85;;
72924;SDS011;61070;50.794;7.054;2023-05-19T13:44:28;6.85;;;1.60;;
72924;SDS011;61070;50.794;7.054;2023-05-19T13:46:54;4.10;;;1.70;;
72924;SDS011;61070;50.794;7.054;2023-05-19T13:49:19;11.93;;;1.97;;
72924;SDS011;61070;50.794;7.054;2023-05-19T13:51:45;8.27;;;1.80;;
72924;SDS011;61070;50.794;7.054;2023-05-19T13:54:10;6.43;;;1.52;;
72924;SDS011;61070;50.794;7.054;2023-05-19T13:56:35;5.70;;;2.20;;
72924;SDS011;61070;50.794;7.054;2023-05-19T13:59:01;7.50;;;1.63;;
72924;SDS011;61070;50.794;7.054;2023-05-19T14:01:27;3.53;;;1.38;;
72924;SDS011;61070;50.794;7.054;2023-05-19T14:03:53;10.13;;;1.85;;
72924;SDS011;61070;50.794;7.054;2023-05-19T14:06:18;7.10;;;1.73;;
72924;SDS011;61070;50.794;7.054;2023-05-19T14:08:44;3.33;;;1.45;;
72924;SDS011;61070;50.794;7.054;2023-05-19T14:11:09;4.50;;;1.50;;
72924;SDS011;61070;50.794;7.054;2023-05-19T14:13:41;6.65;;;1.63;;
72924;SDS011;61070;50.794;7.054;2023-05-19T14:16:07;9.02;;;2.50;;
72924;SDS011;61070;50.794;7.054;2023-05-19T14:18:32;4.03;;;1.48;;
72924;SDS011;61070;50.794;7.054;2023-05-19T14:20:57;7.35;;;1.85;;
72924;SDS011;61070;50.794;7.054;2023-05-19T14:23:22;4.45;;;1.55;;
72924;SDS011;61070;50.794;7.054;2023-05-19T14:25:48;6.70;;;1.48;;
72924;SDS011;61070;50.794;7.054;2023-05-19T14:28:13;10.23;;;1.98;;
72924;SDS011;61070;50.794;7.054;2023-05-19T14:30:38;9.73;;;1.73;;
72924;SDS011;61070;50.794;7.054;2023-05-19T14:33:05;3.13;;;1.38;;
72924;SDS011;61070;50.794;7.054;2023-05-19T14:35:30;5.30;;;1.88;;
72924;SDS011;61070;50.794;7.054;2023-05-19T14:37:56;5.88;;;1.40;;
72924;SDS011;61070;50.794;7.054;2023-05-19T14:40:21;5.40;;;2.13;;
72924;SDS011;61070;50.794;7.054;2023-05-19T14:42:46;7.22;;;1.98;;
72924;SDS011;61070;50.794;7.054;2023-05-19T14:45:11;6.13;;;1.75;;
72924;SDS011;61070;50.794;7.054;2023-05-19T14:47:37;5.68;;;1.42;;
72924;SDS011;61070;50.794;7.054;2023-05-19T14:50:02;8.10;;;1.90;;
72924;SDS011;61070;50.794;7.054;2023-05-19T14:52:28;8.20;;;1.98;;
72924;SDS011;61070;50.794;7.054;2023-05-19T14:54:53;5.88;;;1.83;;
72924;SDS011;61070;50.794;7.054;2023-05-19T14:57:19;6.50;;;1.60;;
72924;SDS011;61070;50.794;7.054;2023-05-19T14:59:45;8.35;;;2.33;;
72924;SDS011;61070;50.794;7.054;2023-05-19T15:02:10;6.40;;;1.77;;
72924;SDS011;61070;50.794;7.054;2023-05-19T15:04:36;3.35;;;1.50;;